Time;durP1;ratioP1;P1;durP2;ratioP2;P2;SDS_P1;SDS_P2;PMS_P1;PMS_P2;Temp;Humidity;BMP_temperature;BMP_pressure;BME280_temperature;BME280_humidity;BME280_pressure;Samples;Min_cycle;Max_cycle;Signal;HPM_P1;HPM_P2
2021/01/04 04:12:46;;;;;;;17.87;11.70;;;;;;;2.66;90.17;99966.94;1777012;79;21985;-60
2021/01/04 04:15:16;;;;;;;16.02;11.30;;;;;;;2.62;90.08;99967.80;1749736;82;21044;-60
2021/01/04 04:17:43;;;;;;;16.02;11.00;;;;;;;2.67;90.13;99966.51;1749672;82;21204;-60
2021/01/04 04:20:15;;;;;;;13.03;10.25;;;;;;;2.73;90.15;99962.23;1749613;82;21531;-60
2021/01/04 04:22:45;;;;;;;13.28;8.88;;;;;;;2.81;90.03;99953.20;1749656;82;21096;-60
2021/01/04 04:25:13;;;;;;;12.80;8.53;;;;;;;2.86;89.90;99948.91;1749709;82;21480;-60
2021/01/04 04:27:41;;;;;;;13.62;9.70;;;;;;;2.91;89.87;99948.91;1749668;81;21116;-60
2021/01/04 04:30:12;;;;;;;12.98;9.13;;;;;;;2.94;89.83;99947.19;1749619;82;21381;-60
2021/01/04 04:32:39;;;;;;;13.88;9.40;;;;;;;3.02;89.77;99944.14;1749513;82;21124;-60
2021/01/04 04:35:11;;;;;;;12.25;7.62;;;;;;;3.10;89.57;99944.98;1749627;82;21024;-58
2021/01/04 04:37:43;;;;;;;11.03;9.10;;;;;;;3.15;89.43;99942.84;1749605;82;21111;-59
2021/01/04 04:40:30;;;;;;;11.65;9.15;;;;;;;3.17;89.21;99947.55;1749779;82;21128;-59
2021/01/04 04:43:14;;;;;;;10.95;8.60;;;;;;;3.18;89.18;99941.55;1749676;82;22093;-59
2021/01/04 04:45:42;;;;;;;11.55;7.10;;;;;;;3.16;88.95;99945.41;1724355;81;21080;-59
2021/01/04 04:48:50;;;;;;;12.20;9.23;;;;;;;3.18;89.08;99944.97;1719745;82;21143;-59
2021/01/04 04:51:48;;;;;;;10.90;7.97;;;;;;;3.19;89.00;99947.97;1719735;83;21190;-59
2021/01/04 04:54:39;;;;;;;12.25;9.78;;;;;;;3.22;89.25;99943.22;1719755;82;21701;-59
2021/01/04 04:57:16;;;;;;;9.78;7.33;;;;;;;3.29;89.00;99952.19;1719814;83;21393;-59
2021/01/04 05:00:28;;;;;;;11.15;7.00;;;;;;;3.32;88.85;99953.47;1719757;83;21056;-59
2021/01/04 05:03:25;;;;;;;10.82;8.35;;;;;;;3.38;88.66;99957.73;1719814;83;21481;-59
2021/01/04 05:06:31;;;;;;;14.65;10.43;;;;;;;3.37;88.56;99956.02;1719729;83;21052;-60
2021/01/04 05:09:25;;;;;;;14.78;9.78;;;;;;;3.37;88.55;99960.73;1719334;82;21579;-61
2021/01/04 05:12:08;;;;;;;14.35;10.20;;;;;;;3.40;88.60;99963.27;1712907;83;23448;-60
2021/01/04 05:14:41;;;;;;;15.15;11.93;;;;;;;3.42;88.40;99949.12;1707071;84;28256;-60
2021/01/04 05:17:52;;;;;;;19.77;13.08;;;;;;;3.47;88.35;99949.96;1707096;84;21025;-60
2021/01/04 05:20:51;;;;;;;15.70;11.05;;;;;;;3.46;88.29;99947.82;1706936;84;21120;-60
2021/01/04 05:24:14;;;;;;;15.85;11.12;;;;;;;3.42;88.01;99946.55;1706674;84;21188;-59
2021/01/04 05:27:21;;;;;;;16.60;12.13;;;;;;;3.40;88.23;99943.98;1706709;83;21654;-60
2021/01/04 05:30:27;;;;;;;15.58;10.38;;;;;;;3.39;88.08;99943.59;1706372;84;21164;-60
2021/01/04 05:33:17;;;;;;;15.95;11.95;;;;;;;3.39;88.15;99952.59;1706438;84;21065;-58
2021/01/04 05:35:44;;;;;;;18.67;13.10;;;;;;;3.42;88.05;99949.12;1706574;83;21485;-59
2021/01/04 05:38:40;;;;;;;16.65;12.20;;;;;;;3.41;88.11;99936.69;1706470;83;21064;-60
2021/01/04 05:41:37;;;;;;;24.52;17.60;;;;;;;3.42;87.92;99943.55;1706496;83;22298;-59
2021/01/04 05:44:21;;;;;;;19.52;13.50;;;;;;;3.51;87.94;99947.80;1866292;75;22832;-60
2021/01/04 05:46:53;;;;;;;17.10;13.53;;;;;;;3.45;87.96;99943.97;1808496;79;20998;-60
2021/01/04 05:49:32;;;;;;;16.90;11.83;;;;;;;3.49;88.08;99948.66;1808378;79;21233;-60
2021/01/04 05:52:00;;;;;;;23.87;15.68;;;;;;;3.48;88.03;99954.24;1808484;79;21514;-59
2021/01/04 05:54:34;;;;;;;21.12;16.17;;;;;;;3.51;88.08;99950.38;1808526;79;21077;-60
2021/01/04 05:57:09;;;;;;;18.48;12.25;;;;;;;3.57;88.07;99959.78;1808573;78;21069;-59
2021/01/04 05:59:55;;;;;;;17.15;12.05;;;;;;;3.61;88.09;99960.16;1808568;79;21517;-60
2021/01/04 06:02:29;;;;;;;21.20;12.68;;;;;;;3.67;87.94;99970.00;1808448;79;21358;-60
2021/01/04 06:05:12;;;;;;;14.73;10.53;;;;;;;3.68;87.86;99970.42;1808468;79;20986;-59
2021/01/04 06:07:42;;;;;;;13.88;11.88;;;;;;;3.71;87.68;99969.13;1808729;78;27483;-60
2021/01/04 06:10:20;;;;;;;15.32;10.68;;;;;;;3.71;87.61;99975.98;1808474;79;21057;-66
2021/01/04 06:12:50;;;;;;;13.62;10.15;;;;;;;3.68;87.57;99969.56;1800109;78;21157;-73
2021/01/04 06:15:36;;;;;;;15.18;11.53;;;;;;;3.65;87.61;99973.44;1773018;79;21360;-64
2021/01/04 06:18:21;;;;;;;14.90;9.43;;;;;;;3.63;87.71;99972.16;1756350;79;21122;-62
2021/01/04 06:21:00;;;;;;;20.52;15.18;;;;;;;3.60;87.45;99969.59;1779263;79;21184;-62
2021/01/04 06:23:33;;;;;;;28.10;17.35;;;;;;;3.54;87.58;99973.51;1807787;79;21521;-66
2021/01/04 06:26:05;;;;;;;24.32;15.80;;;;;;;3.52;87.98;99973.94;1808539;79;21049;-63
2021/01/04 06:28:54;;;;;;;19.60;14.05;;;;;;;3.55;88.16;99976.50;1807501;78;21367;-63
2021/01/04 06:31:32;;;;;;;16.57;11.00;;;;;;;3.59;88.22;99975.63;1790665;79;21097;-64
2021/01/04 06:34:11;;;;;;;22.40;15.85;;;;;;;3.64;88.20;99975.59;1774810;80;21085;-63
2021/01/04 06:36:39;;;;;;;23.75;14.45;;;;;;;3.70;88.13;99978.98;1775533;80;21081;-65
2021/01/04 06:39:12;;;;;;;20.37;14.05;;;;;;;3.74;88.00;99981.12;1776571;80;21522;-64
2021/01/04 06:41:40;;;;;;;24.32;16.48;;;;;;;3.75;87.85;99973.82;1776617;80;21131;-63
2021/01/04 06:44:18;;;;;;;17.30;12.63;;;;;;;3.74;87.76;99974.69;1783161;79;21200;-64
2021/01/04 06:47:24;;;;;;;17.20;11.40;;;;;;;3.76;87.75;99974.25;1737127;80;21096;-67
2021/01/04 06:50:17;;;;;;;18.62;11.85;;;;;;;3.75;87.60;99975.11;1784667;80;21056;-63
2021/01/04 06:53:20;;;;;;;14.85;11.57;;;;;;;3.73;87.73;99981.55;1787471;79;21142;-67
2021/01/04 06:56:14;;;;;;;20.85;14.43;;;;;;;3.76;87.69;99983.25;1794591;79;21387;-65
2021/01/04 06:59:25;;;;;;;22.75;15.30;;;;;;;3.73;87.83;99984.12;1756126;81;21535;-67
2021/01/04 07:02:33;;;;;;;16.90;12.90;;;;;;;3.74;87.61;99983.69;1797671;78;21056;-61
2021/01/04 07:05:59;;;;;;;26.10;14.73;;;;;;;3.68;87.68;99981.14;1798293;78;21640;-64
2021/01/04 07:09:07;;;;;;;20.17;13.80;;;;;;;3.66;88.01;99986.30;1812501;79;21077;-66
2021/01/04 07:12:11;;;;;;;17.57;12.15;;;;;;;3.70;88.19;99976.41;1816377;79;21521;-64
2021/01/04 07:15:09;;;;;;;16.15;12.43;;;;;;;3.72;87.90;99975.98;1816263;79;21505;-63
2021/01/04 07:18:12;;;;;;;16.23;11.78;;;;;;;3.71;88.04;99975.55;1816340;78;21132;-69
2021/01/04 07:20:59;;;;;;;19.52;13.15;;;;;;;3.76;87.89;99971.24;1816339;78;21097;-66
2021/01/04 07:23:36;;;;;;;23.00;14.83;;;;;;;3.75;87.97;99977.68;1816281;78;21108;-62
2021/01/04 07:26:22;;;;;;;17.52;12.37;;;;;;;3.76;87.85;99975.10;1816108;78;21370;-64
2021/01/04 07:29:30;;;;;;;18.52;12.90;;;;;;;3.79;87.83;99975.52;1811813;79;21068;-66
2021/01/04 07:32:19;;;;;;;22.93;15.65;;;;;;;3.79;87.83;99987.09;1816299;79;21164;-62
2021/01/04 07:35:08;;;;;;;22.65;16.15;;;;;;;3.85;87.92;99983.61;1816290;79;21612;-65
2021/01/04 07:37:45;;;;;;;22.62;15.78;;;;;;;3.87;87.80;99982.73;1815761;78;21135;-68
2021/01/04 07:40:43;;;;;;;22.90;15.08;;;;;;;3.88;87.78;99977.16;1814746;79;21163;-63
2021/01/04 07:43:24;;;;;;;19.70;14.85;;;;;;;3.90;87.58;99965.14;1813844;79;21112;-63
2021/01/04 07:46:39;;;;;;;40.00;23.07;;;;;;;3.85;87.73;99972.89;1810279;77;21073;-66
2021/01/04 07:49:37;;;;;;;26.23;17.45;;;;;;;3.88;87.75;99976.73;1812749;78;21191;-65
2021/01/04 07:53:05;;;;;;;20.55;14.43;;;;;;;3.90;87.72;99976.73;1813330;78;21215;-66
2021/01/04 07:56:11;;;;;;;21.02;15.90;;;;;;;3.87;87.47;99980.59;1763944;80;22347;-71
2021/01/04 07:59:19;;;;;;;23.60;17.32;;;;;;;3.82;87.56;99978.05;1744965;82;21138;-67
2021/01/04 08:02:17;;;;;;;23.07;16.20;;;;;;;3.84;87.82;99976.75;1764410;81;21149;-68
2021/01/04 08:05:21;;;;;;;22.50;15.43;;;;;;;3.87;87.90;99969.87;1719489;83;21637;-66
2021/01/04 08:08:29;;;;;;;21.48;13.80;;;;;;;3.92;87.90;99972.42;1719594;83;21268;-64
2021/01/04 08:11:50;;;;;;;18.62;14.35;;;;;;;3.96;87.68;99962.11;1751736;81;21326;-68
2021/01/04 08:14:36;;;;;;;19.70;12.28;;;;;;;3.94;87.51;99969.41;1730505;82;21130;-69
2021/01/04 08:17:34;;;;;;;16.90;11.75;;;;;;;3.93;87.62;99974.99;1750790;82;21097;-68
2021/01/04 08:20:04;;;;;;;20.43;13.05;;;;;;;3.92;87.52;99977.14;1750945;81;21058;-67
2021/01/04 08:23:14;;;;;;;21.80;16.52;;;;;;;3.95;87.79;99982.27;1725737;82;22953;-69
2021/01/04 08:26:17;;;;;;;20.95;14.70;;;;;;;4.02;87.69;99979.20;1750986;82;21279;-66
2021/01/04 08:29:09;;;;;;;19.35;13.43;;;;;;;4.08;87.74;99986.89;1750872;82;21214;-63
2021/01/04 08:32:11;;;;;;;19.48;13.20;;;;;;;4.12;87.64;99984.73;1748915;80;22126;-67
2021/01/04 08:34:43;;;;;;;16.50;11.97;;;;;;;4.11;87.35;99985.16;1724893;80;21776;-68
2021/01/04 08:37:18;;;;;;;20.15;13.85;;;;;;;4.11;87.34;99986.88;1747873;80;22322;-69
2021/01/04 08:39:51;;;;;;;22.00;15.53;;;;;;;4.13;87.64;99996.73;1747423;80;21575;-68
2021/01/04 08:42:29;;;;;;;23.35;15.35;;;;;;;4.20;87.59;99997.55;1747661;81;21629;-71
2021/01/04 08:45:03;;;;;;;19.85;13.70;;;;;;;4.23;87.29;99998.36;1747794;82;22280;-71
2021/01/04 08:47:51;;;;;;;30.72;22.32;;;;;;;4.26;87.33;100002.20;1747102;80;21237;-68
2021/01/04 08:50:33;;;;;;;22.95;13.40;;;;;;;4.26;86.95;99997.05;1722010;82;21198;-70
2021/01/04 08:53:22;;;;;;;20.75;13.88;;;;;;;4.22;87.02;99992.78;1741717;80;21576;-67
2021/01/04 08:55:52;;;;;;;21.50;14.55;;;;;;;4.30;87.32;99999.18;1747013;81;22236;-65
2021/01/04 08:58:25;;;;;;;20.68;15.08;;;;;;;4.40;87.11;100000.37;1747711;82;22457;-68
2021/01/04 09:01:04;;;;;;;22.45;14.83;;;;;;;4.44;86.97;99996.05;1747841;80;21218;-67
2021/01/04 09:03:34;;;;;;;23.00;16.02;;;;;;;4.48;86.72;99999.88;1747317;80;21129;-69
2021/01/04 09:06:38;;;;;;;23.57;17.05;;;;;;;4.49;86.55;100005.45;1747922;82;22249;-66
2021/01/04 09:09:20;;;;;;;19.85;13.15;;;;;;;4.51;86.60;100000.30;1733994;81;21685;-69
2021/01/04 09:12:01;;;;;;;23.55;15.70;;;;;;;4.47;86.41;99993.02;1715345;83;21652;-67
2021/01/04 09:15:02;;;;;;;24.30;16.40;;;;;;;4.47;86.55;99986.58;1724114;82;21141;-67
2021/01/04 09:17:51;;;;;;;21.00;14.85;;;;;;;4.55;86.37;99983.09;1760593;81;21115;-69
2021/01/04 09:20:24;;;;;;;17.82;14.05;;;;;;;4.60;86.38;99976.16;1733284;81;21239;-66
2021/01/04 09:23:13;;;;;;;22.82;15.40;;;;;;;4.63;85.98;99972.27;1750039;81;21201;-65
2021/01/04 09:25:47;;;;;;;22.65;16.55;;;;;;;4.60;85.82;99974.44;1756229;81;21439;-66
2021/01/04 09:28:17;;;;;;;19.85;14.53;;;;;;;4.58;85.94;99965.05;1730033;81;22011;-67
2021/01/04 09:30:46;;;;;;;18.80;13.93;;;;;;;4.60;85.81;99973.15;1756391;80;21184;-69
2021/01/04 09:33:21;;;;;;;22.82;16.00;;;;;;;4.63;85.83;99976.98;1759775;80;21194;-68
2021/01/04 09:35:49;;;;;;;21.02;14.53;;;;;;;4.63;85.57;99964.55;1754389;80;21602;-69
2021/01/04 09:38:26;;;;;;;21.40;15.32;;;;;;;4.61;85.64;99958.11;1739102;80;22176;-70
2021/01/04 09:40:59;;;;;;;17.90;12.10;;;;;;;4.61;85.54;99964.98;1747862;82;21616;-67
2021/01/04 09:43:30;;;;;;;22.20;17.35;;;;;;;4.58;85.61;99960.74;1747299;81;21341;-72
2021/01/04 09:46:28;;;;;;;18.30;14.07;;;;;;;4.63;85.61;99956.81;1740667;80;21369;-67
2021/01/04 09:49:02;;;;;;;21.82;16.15;;;;;;;4.62;85.56;99958.53;1721044;82;21511;-69
2021/01/04 09:51:47;;;;;;;21.10;15.80;;;;;;;4.61;85.65;99953.39;1748205;80;21212;-65
2021/01/04 09:54:19;;;;;;;16.95;12.35;;;;;;;4.65;85.77;99948.64;1747060;82;22056;-69
2021/01/04 09:56:49;;;;;;;19.00;13.20;;;;;;;4.63;85.33;99949.08;1747717;82;21130;-71
2021/01/04 09:59:23;;;;;;;24.32;18.07;;;;;;;4.62;85.56;99946.09;1748803;80;21269;-70
2021/01/04 10:02:01;;;;;;;22.17;15.28;;;;;;;4.67;85.74;99947.75;1748022;80;21124;-69
2021/01/04 10:04:36;;;;;;;26.65;17.87;;;;;;;4.76;85.58;99956.70;1746196;80;21240;-70
2021/01/04 10:07:05;;;;;;;18.70;13.78;;;;;;;4.75;85.29;99935.66;1745599;82;21161;-70
2021/01/04 10:09:36;;;;;;;19.98;14.33;;;;;;;4.72;85.15;99935.69;1717654;82;21613;-70
2021/01/04 10:12:05;;;;;;;25.97;17.67;;;;;;;4.72;85.16;99934.40;1747593;82;21441;-70
2021/01/04 10:14:32;;;;;;;26.17;16.62;;;;;;;4.76;85.20;99936.52;1747290;82;21672;-72
2021/01/04 10:17:02;;;;;;;26.33;18.75;;;;;;;4.78;85.31;99937.36;1718172;82;22203;-70
2021/01/04 10:19:51;;;;;;;20.68;15.60;;;;;;;4.83;85.18;99947.16;1746775;82;22046;-69
2021/01/04 10:22:39;;;;;;;17.95;12.78;;;;;;;4.80;84.87;99945.46;1747578;82;22288;-71
2021/01/04 10:28:06;;;;;;;18.98;13.40;;;;;;;4.91;85.10;99943.22;1881714;76;22153;-71
2021/01/04 10:30:34;;;;;;;21.90;14.87;;;;;;;4.96;85.04;99946.17;1777601;80;21186;-71
2021/01/04 10:33:10;;;;;;;22.93;15.10;;;;;;;5.04;84.95;99941.77;1811298;78;21150;-70
2021/01/04 10:35:38;;;;;;;18.60;13.50;;;;;;;5.07;84.77;99937.02;1768174;80;21144;-70
2021/01/04 10:38:20;;;;;;;21.20;15.13;;;;;;;5.07;84.53;99928.84;1810377;78;21188;-71
2021/01/04 10:40:49;;;;;;;16.48;12.70;;;;;;;5.03;84.53;99919.44;1812328;78;21068;-73
2021/01/04 10:43:23;;;;;;;23.52;15.40;;;;;;;5.01;84.76;99921.61;1811458;79;21506;-71
2021/01/04 10:45:52;;;;;;;16.60;13.35;;;;;;;5.03;84.77;99919.87;1784699;78;22348;-65
2021/01/04 10:48:26;;;;;;;18.77;13.40;;;;;;;5.07;84.84;99917.68;1756073;81;21106;-68
2021/01/04 10:50:57;;;;;;;17.45;12.95;;;;;;;5.08;84.67;99918.95;1756829;81;21588;-69
2021/01/04 10:53:37;;;;;;;14.50;11.90;;;;;;;5.07;84.60;99921.55;1790185;80;21206;-70
2021/01/04 10:56:39;;;;;;;17.32;13.13;;;;;;;5.03;84.67;99917.29;1789469;80;21178;-70
2021/01/04 10:59:17;;;;;;;16.00;12.10;;;;;;;5.05;84.83;99915.55;1791012;79;21321;-71
2021/01/04 11:01:48;;;;;;;17.75;13.68;;;;;;;5.11;84.74;99903.45;1793968;79;21220;-69
2021/01/04 11:04:18;;;;;;;17.42;12.80;;;;;;;5.14;84.58;99907.72;1775273;79;21193;-69
2021/01/04 11:06:51;;;;;;;23.90;17.48;;;;;;;5.08;84.51;99908.64;1760129;81;21494;-70
2021/01/04 11:09:28;;;;;;;29.92;21.17;;;;;;;5.09;84.66;99903.90;1752441;81;21190;-70
2021/01/04 11:12:18;;;;;;;26.17;18.75;;;;;;;5.08;84.61;99892.31;1754814;79;22325;-70
2021/01/04 11:14:59;;;;;;;15.03;12.23;;;;;;;5.11;85.00;99887.98;1724484;83;21619;-68
2021/01/04 11:17:34;;;;;;;13.10;9.73;;;;;;;5.18;84.88;99891.34;1756989;80;21155;-69
2021/01/04 11:20:12;;;;;;;14.95;11.12;;;;;;;5.20;84.66;99897.30;1757737;80;21166;-75
2021/01/04 11:22:40;;;;;;;12.98;9.50;;;;;;;5.20;84.58;99908.47;1757890;81;21067;-70
2021/01/04 11:25:09;;;;;;;13.62;10.70;;;;;;;5.27;84.58;99896.36;1757827;81;21370;-70
2021/01/04 11:27:37;;;;;;;13.08;10.45;;;;;;;5.35;84.32;99893.25;1757724;81;21080;-70
2021/01/04 11:30:06;;;;;;;12.47;9.60;;;;;;;5.35;83.95;99897.13;1757853;80;21107;-70
2021/01/04 11:32:34;;;;;;;11.78;9.80;;;;;;;5.34;84.02;99902.30;1757929;81;21568;-71
2021/01/04 11:35:02;;;;;;;15.35;10.72;;;;;;;5.32;83.76;99906.62;1757840;81;21166;-71
2021/01/04 11:37:31;;;;;;;15.28;10.48;;;;;;;5.27;83.99;99901.52;1757711;81;22280;-71
2021/01/04 11:39:59;;;;;;;13.60;10.93;;;;;;;5.28;84.03;99904.52;1757058;80;21562;-70
2021/01/04 11:42:29;;;;;;;11.88;8.53;;;;;;;5.30;84.09;99901.92;1757250;81;21098;-71
2021/01/04 11:44:58;;;;;;;13.78;10.75;;;;;;;5.31;84.07;99908.78;1756780;81;21151;-71
2021/01/04 11:47:26;;;;;;;17.65;11.03;;;;;;;5.28;83.98;99910.11;1757275;80;21163;-69
2021/01/04 11:49:54;;;;;;;14.38;9.75;;;;;;;5.28;83.93;99924.30;1757308;81;21786;-70
2021/01/04 11:52:22;;;;;;;14.47;10.80;;;;;;;5.25;83.72;99917.87;1757276;80;21194;-70
2021/01/04 11:54:50;;;;;;;16.35;11.97;;;;;;;5.18;83.51;99915.41;1757340;81;21484;-69
2021/01/04 11:57:18;;;;;;;14.38;11.80;;;;;;;5.16;83.79;99915.86;1757198;81;21080;-70
2021/01/04 11:59:46;;;;;;;15.35;12.05;;;;;;;5.16;83.68;99918.44;1757319;81;21070;-71
2021/01/04 12:02:14;;;;;;;14.80;11.25;;;;;;;5.15;83.66;99921.88;1757267;81;21848;-70
2021/01/04 12:04:44;;;;;;;56.75;41.35;;;;;;;5.16;83.64;99919.72;1757251;81;21799;-71
2021/01/04 12:07:12;;;;;;;14.87;11.35;;;;;;;5.11;83.64;99921.94;1757296;81;21489;-71
2021/01/04 12:09:41;;;;;;;18.02;14.83;;;;;;;5.06;83.60;99921.12;1757282;81;21080;-70
2021/01/04 12:12:10;;;;;;;14.38;11.75;;;;;;;5.01;83.68;99919.03;1757323;81;21060;-70
2021/01/04 12:14:39;;;;;;;15.23;11.28;;;;;;;4.99;83.86;99920.37;1748370;81;21433;-70
2021/01/04 12:17:08;;;;;;;14.35;9.90;;;;;;;5.02;83.91;99924.17;1718300;83;21086;-69
2021/01/04 12:19:36;;;;;;;18.87;13.75;;;;;;;5.02;83.51;99922.02;1717333;82;21175;-69
2021/01/04 12:22:06;;;;;;;16.45;10.75;;;;;;;5.01;83.59;99921.61;1748386;81;21159;-70
2021/01/04 12:24:37;;;;;;;17.77;12.45;;;;;;;4.97;83.53;99919.96;1763996;81;21185;-68
2021/01/04 12:27:07;;;;;;;14.25;10.75;;;;;;;4.94;83.53;99918.70;1765861;81;22323;-68
2021/01/04 12:29:35;;;;;;;16.23;12.50;;;;;;;4.87;83.54;99920.48;1768487;80;21589;-67
2021/01/04 12:32:04;;;;;;;12.88;10.20;;;;;;;4.84;83.69;99923.09;1761659;81;21162;-68
2021/01/04 12:34:32;;;;;;;14.07;10.25;;;;;;;4.84;83.88;99912.34;1759026;81;21194;-67
2021/01/04 12:37:00;;;;;;;15.70;11.80;;;;;;;4.83;83.80;99912.36;1761690;81;21138;-70
2021/01/04 12:39:28;;;;;;;14.30;11.28;;;;;;;4.75;83.86;99907.75;1755372;81;21317;-66
2021/01/04 12:41:55;;;;;;;16.73;12.98;;;;;;;4.68;84.07;99906.95;1758666;81;21588;-66
2021/01/04 12:44:23;;;;;;;13.58;11.12;;;;;;;4.64;84.19;99908.28;1741814;81;21170;-66
2021/01/04 12:46:52;;;;;;;13.80;10.78;;;;;;;4.61;84.16;99913.03;1761153;80;21103;-71
2021/01/04 12:49:22;;;;;;;14.60;13.03;;;;;;;4.56;84.24;99904.95;1786675;80;21102;-66
2021/01/04 12:51:53;;;;;;;16.48;13.13;;;;;;;4.48;84.44;99915.31;1732903;82;22024;-67
2021/01/04 12:54:26;;;;;;;16.07;13.00;;;;;;;4.45;84.73;99912.33;1754474;81;21520;-68
2021/01/04 12:56:56;;;;;;;13.40;10.30;;;;;;;4.47;84.83;99912.32;1783523;80;21116;-68
2021/01/04 12:59:26;;;;;;;10.82;9.08;;;;;;;4.49;84.78;99906.29;1782753;80;21183;-68
2021/01/04 13:01:55;;;;;;;17.52;11.78;;;;;;;4.49;84.80;99906.29;1783134;80;21155;-67
2021/01/04 13:04:26;;;;;;;12.68;10.15;;;;;;;4.54;84.92;99901.53;1783601;80;21819;-66
2021/01/04 13:06:56;;;;;;;15.48;11.88;;;;;;;4.60;84.67;99905.31;1784258;80;21198;-65
2021/01/04 13:09:26;;;;;;;15.18;11.80;;;;;;;4.59;84.62;99889.03;1787355;80;21107;-67
2021/01/04 13:11:54;;;;;;;19.05;14.40;;;;;;;4.59;84.64;99882.59;1786417;80;21211;-65
2021/01/04 13:14:23;;;;;;;16.05;12.93;;;;;;;4.61;84.81;99884.69;1784738;80;21186;-67
2021/01/04 13:16:51;;;;;;;13.43;10.25;;;;;;;4.64;84.94;99887.67;1792808;80;21197;-64
2021/01/04 13:19:18;;;;;;;13.78;10.40;;;;;;;4.70;84.98;99879.45;1793217;78;21729;-68
2021/01/04 13:21:46;;;;;;;15.45;11.75;;;;;;;4.71;84.81;99879.87;1793259;80;21059;-68
2021/01/04 13:24:15;;;;;;;22.65;15.10;;;;;;;4.70;84.85;99870.44;1793235;80;21055;-67
2021/01/04 13:26:52;;;;;;;16.82;12.95;;;;;;;4.72;84.68;99869.13;1792049;79;21186;-67
2021/01/04 13:29:28;;;;;;;16.48;12.28;;;;;;;4.70;84.64;99865.28;1785442;80;21154;-67
2021/01/04 13:32:05;;;;;;;13.88;11.40;;;;;;;4.65;84.51;99868.77;1785482;79;21921;-70
2021/01/04 13:34:34;;;;;;;16.97;12.35;;;;;;;4.60;84.69;99867.52;1785477;80;21521;-70
2021/01/04 13:37:03;;;;;;;15.40;11.10;;;;;;;4.60;84.88;99874.39;1785533;80;21142;-67
2021/01/04 13:39:30;;;;;;;15.95;11.60;;;;;;;4.62;84.91;99868.36;1785367;80;21051;-70
2021/01/04 13:41:59;;;;;;;12.60;9.38;;;;;;;4.67;84.97;99875.61;1785444;80;21375;-70
2021/01/04 13:44:28;;;;;;;17.15;11.93;;;;;;;4.65;84.79;99871.34;1785377;80;21114;-67
2021/01/04 13:46:59;;;;;;;13.40;9.83;;;;;;;4.57;84.65;99869.31;1785265;79;21138;-69
2021/01/04 13:49:27;;;;;;;14.43;10.03;;;;;;;4.46;84.78;99868.11;1785274;79;21083;-67
2021/01/04 13:51:56;;;;;;;12.68;10.75;;;;;;;4.38;84.99;99862.20;1785493;79;21123;-68
2021/01/04 13:54:24;;;;;;;13.48;10.72;;;;;;;4.35;85.23;99867.39;1748363;82;21371;-67
2021/01/04 13:56:53;;;;;;;16.85;12.95;;;;;;;4.33;85.42;99862.25;1748333;82;21501;-70
2021/01/04 13:59:23;;;;;;;13.03;10.13;;;;;;;4.36;85.48;99859.65;1748192;81;21123;-66
2021/01/04 14:01:58;;;;;;;15.08;11.78;;;;;;;4.40;85.48;99857.87;1748277;82;21156;-66
2021/01/04 14:04:26;;;;;;;15.80;11.85;;;;;;;4.41;85.54;99859.58;1781165;79;21536;-68
2021/01/04 14:06:54;;;;;;;17.07;13.58;;;;;;;4.42;85.42;99867.29;1799016;79;21313;-70
2021/01/04 14:09:22;;;;;;;19.87;15.78;;;;;;;4.43;85.33;99868.14;1764651;80;21258;-67
2021/01/04 14:11:51;;;;;;;19.55;15.23;;;;;;;4.42;85.49;99869.86;1769862;80;21083;-67
2021/01/04 14:14:19;;;;;;;14.43;11.22;;;;;;;4.47;85.60;99878.41;1798843;79;21063;-71
2021/01/04 14:16:47;;;;;;;12.98;11.05;;;;;;;4.51;85.51;99876.66;1753349;79;21056;-69
2021/01/04 14:19:15;;;;;;;15.60;11.78;;;;;;;4.53;85.23;99874.92;1759452;81;21197;-71
2021/01/04 14:21:48;;;;;;;14.75;11.50;;;;;;;4.50;85.13;99877.52;1740286;82;21127;-73
2021/01/04 14:24:16;;;;;;;13.70;10.63;;;;;;;4.49;85.05;99886.97;1740474;82;21103;-68
2021/01/04 14:26:45;;;;;;;15.43;12.05;;;;;;;4.45;84.97;99885.73;1758264;80;21552;-64
2021/01/04 14:29:13;;;;;;;18.40;13.85;;;;;;;4.41;85.03;99879.75;1754530;81;21135;-67
2021/01/04 14:31:44;;;;;;;19.10;14.38;;;;;;;4.37;84.92;99896.55;1748161;81;21212;-67
2021/01/04 14:34:12;;;;;;;18.57;12.63;;;;;;;4.29;85.08;99899.19;1740099;81;21518;-69
2021/01/04 14:36:40;;;;;;;20.27;13.95;;;;;;;4.25;85.34;99900.52;1739988;82;21087;-67
2021/01/04 14:39:10;;;;;;;19.20;14.68;;;;;;;4.25;85.53;99898.79;1739937;82;21111;-69
2021/01/04 14:41:39;;;;;;;18.20;14.28;;;;;;;4.27;85.57;99901.36;1740023;82;21094;-68
2021/01/04 14:44:10;;;;;;;17.80;12.85;;;;;;;4.24;85.45;99901.37;1739975;82;21374;-66
